Time;durP1;ratioP1;P1;durP2;ratioP2;P2;SDS_P1;SDS_P2;PMS_P1;PMS_P2;Temp;Humidity;BMP_temperature;BMP_pressure;BME280_temperature;BME280_humidity;BME280_pressure;Samples;Min_cycle;Max_cycle;Signal;HPM_P1;HPM_P2
2022/04/04 00:00:06;;;;;;;13.03;9.77;;;-0.60;99.90;;;;;;4990852;28;20435;-83
2022/04/04 00:02:32;;;;;;;13.03;9.30;;;-0.70;99.90;;;;;;4987941;28;20474;-84
2022/04/04 00:04:57;;;;;;;10.97;9.40;;;-0.60;99.90;;;;;;4994294;28;20435;-84
2022/04/04 00:07:23;;;;;;;11.63;8.73;;;-0.60;99.90;;;;;;5000843;28;20196;-84
2022/04/04 00:09:49;;;;;;;10.90;9.03;;;-0.70;99.90;;;;;;4987336;28;20551;-84
2022/04/04 00:12:15;;;;;;;14.07;10.43;;;-0.70;99.90;;;;;;5015464;28;20196;-84
2022/04/04 00:14:40;;;;;;;13.40;9.27;;;-0.70;99.90;;;;;;5008247;28;20609;-83
2022/04/04 00:17:06;;;;;;;10.30;8.83;;;-0.70;99.90;;;;;;4995699;28;20478;-83
2022/04/04 00:19:33;;;;;;;12.50;9.80;;;-0.70;99.90;;;;;;5008338;28;20213;-83
2022/04/04 00:21:58;;;;;;;14.13;9.60;;;-0.80;99.90;;;;;;4998783;28;20455;-84
2022/04/04 00:24:24;;;;;;;10.80;8.97;;;-0.80;99.90;;;;;;4995749;28;20662;-83
2022/04/04 00:26:50;;;;;;;10.20;9.10;;;-0.80;99.90;;;;;;5008631;28;20200;-83
2022/04/04 00:29:15;;;;;;;14.17;10.20;;;-0.80;99.90;;;;;;4991620;28;20479;-83
2022/04/04 00:31:41;;;;;;;13.70;10.20;;;-0.80;99.90;;;;;;4986633;28;20177;-83
2022/04/04 00:34:09;;;;;;;13.90;9.80;;;-0.90;99.90;;;;;;4991091;28;20205;-84
2022/04/04 00:36:35;;;;;;;12.20;8.77;;;-0.80;99.90;;;;;;4993477;28;20189;-83
2022/04/04 00:39:01;;;;;;;10.33;8.63;;;-0.90;99.90;;;;;;4993407;28;21050;-83
2022/04/04 00:41:26;;;;;;;12.67;9.27;;;-0.90;99.90;;;;;;5005540;28;20187;-84
2022/04/04 00:43:53;;;;;;;11.23;9.90;;;-0.90;99.90;;;;;;4993748;28;20219;-83
2022/04/04 00:46:19;;;;;;;11.93;9.47;;;-1.00;99.90;;;;;;4989529;28;20274;-83
2022/04/04 00:48:45;;;;;;;12.93;10.20;;;-1.00;99.90;;;;;;4999511;28;20458;-83
2022/04/04 00:51:11;;;;;;;13.30;9.70;;;-1.00;99.90;;;;;;4985632;28;20454;-84
2022/04/04 00:53:36;;;;;;;11.60;9.20;;;-1.00;99.90;;;;;;4994023;28;20436;-84
2022/04/04 00:56:02;;;;;;;12.37;9.70;;;-1.00;99.90;;;;;;4987352;28;20864;-83
2022/04/04 00:58:30;;;;;;;11.90;9.73;;;-1.00;99.90;;;;;;4990501;28;20907;-83
2022/04/04 01:00:57;;;;;;;12.97;9.50;;;-0.90;99.90;;;;;;4984513;28;20462;-84
2022/04/04 01:03:23;;;;;;;13.80;9.43;;;-0.90;99.90;;;;;;4988400;28;20491;-83
2022/04/04 01:05:48;;;;;;;10.60;8.53;;;-1.00;99.90;;;;;;4982692;28;20963;-83
2022/04/04 01:08:15;;;;;;;11.50;9.10;;;-1.00;99.90;;;;;;4984025;28;20188;-84
2022/04/04 01:10:42;;;;;;;11.10;8.87;;;-0.90;99.90;;;;;;4986678;28;20907;-84
2022/04/04 01:13:12;;;;;;;10.27;9.17;;;-1.00;99.90;;;;;;4986567;28;20995;-83
2022/04/04 01:15:38;;;;;;;11.20;9.23;;;-1.00;99.90;;;;;;4993165;28;20535;-83
2022/04/04 01:18:08;;;;;;;12.03;8.60;;;-1.00;99.90;;;;;;4985867;28;20452;-84
2022/04/04 01:20:37;;;;;;;12.33;9.20;;;-1.00;99.90;;;;;;4986752;28;21015;-84
2022/04/04 01:23:05;;;;;;;11.90;9.07;;;-1.10;99.90;;;;;;4991510;28;20517;-84
2022/04/04 01:25:32;;;;;;;12.50;9.40;;;-1.10;99.90;;;;;;4996202;28;20434;-83
2022/04/04 01:28:02;;;;;;;11.50;9.50;;;-1.10;99.90;;;;;;4986894;28;20484;-84
2022/04/04 01:30:28;;;;;;;10.83;9.70;;;-1.10;99.90;;;;;;4997168;28;20546;-83
2022/04/04 01:32:54;;;;;;;12.60;10.03;;;-1.10;99.90;;;;;;4989774;28;20445;-83
2022/04/04 01:35:21;;;;;;;15.87;10.93;;;-1.00;99.90;;;;;;4981600;28;20465;-83
2022/04/04 01:37:46;;;;;;;10.47;8.83;;;-1.10;99.90;;;;;;4983391;28;20452;-84
2022/04/04 01:40:12;;;;;;;14.10;9.70;;;-1.10;99.90;;;;;;4985936;28;21351;-83
2022/04/04 01:42:39;;;;;;;13.93;9.20;;;-1.20;99.90;;;;;;4992886;28;20582;-83
2022/04/04 01:45:09;;;;;;;13.03;9.77;;;-1.20;99.90;;;;;;4997228;28;20468;-83
2022/04/04 01:47:35;;;;;;;15.10;9.80;;;-1.20;99.90;;;;;;4983577;28;20440;-83
2022/04/04 01:50:01;;;;;;;15.80;10.03;;;-1.30;99.90;;;;;;4984451;28;21305;-84
2022/04/04 01:52:27;;;;;;;12.40;10.23;;;-1.40;99.90;;;;;;4988110;28;20936;-84
2022/04/04 01:54:53;;;;;;;13.50;9.90;;;-1.40;99.90;;;;;;4994004;28;20447;-83
2022/04/04 01:57:19;;;;;;;15.63;10.97;;;-1.40;99.90;;;;;;4983968;28;20269;-84
2022/04/04 01:59:44;;;;;;;15.13;11.77;;;-1.30;99.90;;;;;;4996189;28;20966;-84
2022/04/04 02:02:10;;;;;;;12.83;10.13;;;-1.40;99.90;;;;;;4987462;28;20204;-83
2022/04/04 02:04:36;;;;;;;15.30;11.53;;;-1.40;99.90;;;;;;4987281;28;20272;-83
2022/04/04 02:07:02;;;;;;;13.93;11.20;;;-1.40;99.90;;;;;;4982342;28;20184;-83
2022/04/04 02:09:28;;;;;;;14.50;10.90;;;-1.50;99.90;;;;;;4993362;28;20181;-84
2022/04/04 02:11:53;;;;;;;13.40;10.67;;;-1.50;99.90;;;;;;4989151;28;21072;-83
2022/04/04 02:14:19;;;;;;;13.97;11.10;;;-1.60;99.90;;;;;;4986916;28;20586;-83
2022/04/04 02:16:45;;;;;;;14.23;9.70;;;-1.60;99.90;;;;;;4995264;28;20189;-83
2022/04/04 02:19:10;;;;;;;12.77;10.47;;;-1.60;99.90;;;;;;4994245;28;20323;-83
2022/04/04 02:21:36;;;;;;;16.73;11.47;;;-1.60;99.90;;;;;;5000886;28;20181;-83
2022/04/04 02:24:02;;;;;;;13.63;10.43;;;-1.60;99.90;;;;;;5006380;28;20267;-83
2022/04/04 02:26:29;;;;;;;15.13;10.47;;;-1.70;99.90;;;;;;4991067;28;20185;-84
2022/04/04 02:28:54;;;;;;;15.85;10.35;;;-1.70;99.90;;;;;;4997061;28;20441;-84
2022/04/04 02:31:20;;;;;;;13.97;10.60;;;-1.70;99.90;;;;;;4996808;28;20185;-84
2022/04/04 02:33:45;;;;;;;16.70;10.93;;;-1.70;99.90;;;;;;4997726;28;20247;-84
2022/04/04 02:36:11;;;;;;;13.20;11.23;;;-1.80;99.90;;;;;;5007341;28;20198;-84
2022/04/04 02:38:37;;;;;;;16.17;10.70;;;-1.80;99.90;;;;;;5001613;28;20178;-83
2022/04/04 02:41:02;;;;;;;15.27;10.93;;;-1.90;99.90;;;;;;5012596;28;20969;-83
2022/04/04 02:43:28;;;;;;;13.27;10.00;;;-1.90;99.90;;;;;;4991652;28;20961;-83
2022/04/04 02:45:55;;;;;;;12.43;9.23;;;-1.90;99.90;;;;;;4987444;28;20181;-82
2022/04/04 02:48:21;;;;;;;14.57;9.93;;;-1.80;99.90;;;;;;5005027;28;20216;-83
2022/04/04 02:50:47;;;;;;;13.82;9.88;;;-1.80;99.90;;;;;;4978561;28;20186;-83
2022/04/04 02:53:14;;;;;;;12.75;8.93;;;-1.80;99.90;;;;;;4997075;28;20219;-83
2022/04/04 02:58:23;;;;;;;13.38;10.38;;;-1.90;99.90;;;;;;4988532;28;20335;-83
2022/04/04 03:00:49;;;;;;;13.20;8.57;;;-1.90;99.90;;;;;;4998311;28;20185;-83
2022/04/04 03:03:15;;;;;;;13.57;8.97;;;-1.90;99.90;;;;;;4994985;28;20213;-83
2022/04/04 03:05:41;;;;;;;13.25;9.75;;;-1.90;99.90;;;;;;4991116;28;20534;-83
2022/04/04 03:08:07;;;;;;;12.80;9.00;;;-1.90;99.90;;;;;;4984274;28;20689;-83
2022/04/04 03:10:34;;;;;;;11.10;9.20;;;-2.00;99.90;;;;;;4984564;28;20684;-83
2022/04/04 03:13:02;;;;;;;11.50;9.43;;;-2.00;99.90;;;;;;4983228;28;20207;-83
2022/04/04 03:15:28;;;;;;;13.15;8.48;;;-2.00;99.90;;;;;;4993071;28;20188;-83
2022/04/04 03:17:55;;;;;;;12.48;9.50;;;-2.00;99.90;;;;;;4991370;28;20180;-83
2022/04/04 03:20:23;;;;;;;11.93;9.40;;;-2.00;99.90;;;;;;4986472;28;20268;-83
2022/04/04 03:22:51;;;;;;;14.32;9.60;;;-2.00;99.90;;;;;;4993818;28;20964;-83
2022/04/04 03:25:17;;;;;;;15.00;10.20;;;-2.10;99.90;;;;;;5017433;28;20196;-84
2022/04/04 03:27:43;;;;;;;14.75;10.40;;;-2.10;99.90;;;;;;4987038;28;20828;-84
2022/04/04 03:30:12;;;;;;;12.38;8.52;;;-2.20;99.90;;;;;;4997111;28;20950;-83
2022/04/04 03:32:37;;;;;;;14.77;10.38;;;-2.20;99.90;;;;;;4983807;28;20196;-83
2022/04/04 03:35:04;;;;;;;14.90;10.73;;;-2.20;99.90;;;;;;4989314;28;20192;-84
2022/04/04 03:37:32;;;;;;;14.43;9.98;;;-2.10;99.90;;;;;;4984476;28;20785;-84
2022/04/04 03:39:58;;;;;;;13.43;9.40;;;-2.20;99.90;;;;;;4987922;28;20204;-84
2022/04/04 03:42:23;;;;;;;13.90;9.77;;;-2.20;99.90;;;;;;4980889;28;20204;-83
2022/04/04 03:44:49;;;;;;;14.87;11.03;;;-2.20;99.90;;;;;;4983466;28;20231;-83
2022/04/04 03:47:14;;;;;;;14.67;10.70;;;-2.20;99.90;;;;;;4991101;28;20513;-84
2022/04/04 03:49:40;;;;;;;15.40;10.20;;;-2.20;99.90;;;;;;4990802;28;20215;-83
2022/04/04 03:52:07;;;;;;;12.37;9.90;;;-2.20;99.90;;;;;;4992855;28;20191;-84
2022/04/04 03:54:39;;;;;;;14.32;10.20;;;-2.20;99.90;;;;;;5005517;28;20177;-83
2022/04/04 03:57:05;;;;;;;15.38;10.80;;;-2.20;99.90;;;;;;4988569;28;20216;-83
2022/04/04 03:59:30;;;;;;;16.87;11.30;;;-2.20;99.90;;;;;;4986680;28;20304;-83
2022/04/04 04:01:56;;;;;;;15.90;11.30;;;-2.30;99.90;;;;;;4986042;28;20204;-84
2022/04/04 04:04:21;;;;;;;16.87;11.63;;;-2.30;99.90;;;;;;4990839;28;20186;-84
2022/04/04 04:06:47;;;;;;;18.50;12.30;;;-2.20;99.90;;;;;;4982489;28;20193;-83
2022/04/04 04:09:14;;;;;;;15.57;11.70;;;-2.30;99.90;;;;;;4984583;28;20264;-83
2022/04/04 04:11:39;;;;;;;16.73;12.00;;;-2.30;99.90;;;;;;4983951;28;20185;-84
2022/04/04 04:14:05;;;;;;;12.87;10.97;;;-2.30;99.90;;;;;;5001356;28;20199;-84
2022/04/04 04:16:31;;;;;;;15.30;11.60;;;-2.30;99.90;;;;;;4994544;28;20197;-83
2022/04/04 04:18:57;;;;;;;11.67;9.63;;;-2.30;99.90;;;;;;5012785;28;20435;-84
2022/04/04 04:21:23;;;;;;;14.73;10.70;;;-2.40;99.90;;;;;;5006378;28;20184;-84
2022/04/04 04:23:50;;;;;;;12.85;9.55;;;-2.30;99.90;;;;;;5004426;28;20251;-84
2022/04/04 04:26:16;;;;;;;13.25;10.02;;;-2.40;99.90;;;;;;4999482;28;20188;-84
2022/04/04 04:28:46;;;;;;;10.70;8.85;;;-2.30;99.90;;;;;;4995166;28;20199;-83
2022/04/04 04:31:14;;;;;;;10.88;8.50;;;-2.30;99.90;;;;;;4992953;28;20186;-84
2022/04/04 04:33:39;;;;;;;12.32;8.77;;;-2.30;99.90;;;;;;4995400;28;20278;-84
2022/04/04 04:36:05;;;;;;;14.73;10.20;;;-2.30;99.90;;;;;;4999569;28;20746;-84
2022/04/04 04:38:31;;;;;;;13.87;9.10;;;-2.40;99.90;;;;;;5001798;28;20449;-83
2022/04/04 04:40:57;;;;;;;13.03;8.23;;;-2.40;99.90;;;;;;4990446;28;20550;-83
2022/04/04 04:43:23;;;;;;;12.65;8.70;;;-2.40;99.90;;;;;;5010945;28;20223;-84
2022/04/04 04:45:49;;;;;;;11.93;8.47;;;-2.40;99.90;;;;;;4992294;28;21142;-84
2022/04/04 04:48:15;;;;;;;12.37;8.60;;;-2.40;99.90;;;;;;4996123;28;20591;-83
2022/04/04 04:50:41;;;;;;;10.97;8.10;;;-2.40;99.90;;;;;;4988212;28;20471;-83
2022/04/04 04:53:06;;;;;;;9.37;8.00;;;-2.50;99.90;;;;;;4989017;28;20188;-83
2022/04/04 04:55:32;;;;;;;9.90;8.30;;;-2.40;99.90;;;;;;4973514;28;20181;-83
2022/04/04 04:57:58;;;;;;;11.03;8.70;;;-2.50;99.90;;;;;;4986536;28;20272;-83
2022/04/04 05:00:27;;;;;;;11.85;8.50;;;-2.60;99.90;;;;;;4999173;28;20443;-83
2022/04/04 05:05:39;;;;;;;12.60;8.93;;;-2.60;99.90;;;;;;5004402;28;20187;-84
2022/04/04 05:08:06;;;;;;;14.70;9.63;;;-2.60;99.90;;;;;;4977017;28;20221;-83
2022/04/04 05:10:34;;;;;;;14.10;9.30;;;-2.60;99.90;;;;;;4991260;28;20181;-84
2022/04/04 05:13:00;;;;;;;10.45;8.82;;;-2.60;99.90;;;;;;4988833;28;20219;-84
2022/04/04 05:15:25;;;;;;;11.60;9.30;;;-2.60;99.90;;;;;;4983958;28;24439;-84
2022/04/04 05:17:52;;;;;;;11.43;8.00;;;-2.60;99.90;;;;;;4987260;28;20833;-84
2022/04/04 05:20:19;;;;;;;11.50;7.80;;;-2.60;99.90;;;;;;5004801;28;20700;-84
2022/04/04 05:22:46;;;;;;;9.80;8.32;;;-2.50;99.90;;;;;;4999352;28;20247;-84
2022/04/04 05:25:12;;;;;;;10.52;8.23;;;-2.60;99.90;;;;;;4994600;28;20199;-83
2022/04/04 05:27:39;;;;;;;12.57;8.37;;;-2.60;99.90;;;;;;4983566;28;20185;-84
2022/04/04 05:30:07;;;;;;;12.80;8.52;;;-2.60;99.90;;;;;;4984574;28;20287;-83
2022/04/04 05:32:36;;;;;;;10.73;7.75;;;-2.60;99.90;;;;;;4981894;28;20198;-84
2022/04/04 05:35:03;;;;;;;9.45;7.47;;;-2.60;99.90;;;;;;4988778;28;20189;-84
2022/04/04 05:37:29;;;;;;;10.02;7.72;;;-2.50;99.90;;;;;;4977336;28;20601;-83
2022/04/04 05:39:54;;;;;;;8.97;7.87;;;-2.60;99.90;;;;;;4986906;28;20539;-83
2022/04/04 05:42:21;;;;;;;12.30;8.87;;;-2.60;99.90;;;;;;4981132;28;20222;-83
2022/04/04 05:44:47;;;;;;;11.70;8.30;;;-2.60;99.90;;;;;;4980240;28;20193;-84
2022/04/04 05:47:18;;;;;;;11.35;8.00;;;-2.50;99.90;;;;;;4989331;28;20192;-83
2022/04/04 05:49:44;;;;;;;12.02;8.95;;;-2.50;99.90;;;;;;4987324;28;20193;-84
2022/04/04 05:52:09;;;;;;;10.18;7.50;;;-2.40;99.90;;;;;;4999018;28;20184;-83
2022/04/04 05:54:35;;;;;;;8.87;7.57;;;-2.40;99.90;;;;;;4988693;28;20650;-83
2022/04/04 05:57:00;;;;;;;11.60;7.97;;;-2.30;99.90;;;;;;4983285;28;20278;-84
2022/04/04 05:59:26;;;;;;;10.53;8.37;;;-2.30;99.90;;;;;;4999780;28;20223;-83
2022/04/04 06:01:52;;;;;;;13.00;9.07;;;-2.30;99.90;;;;;;4979773;28;20251;-83
2022/04/04 06:04:17;;;;;;;12.73;8.73;;;-2.20;99.90;;;;;;4992652;28;20236;-83
2022/04/04 06:06:43;;;;;;;12.50;8.87;;;-2.10;99.90;;;;;;4992214;28;20538;-83
2022/04/04 06:09:11;;;;;;;10.83;8.83;;;-2.10;99.90;;;;;;4984415;28;21006;-84
2022/04/04 06:11:37;;;;;;;11.88;9.02;;;-1.90;99.90;;;;;;4988561;28;20272;-83
2022/04/04 06:14:05;;;;;;;12.00;8.90;;;-1.80;99.90;;;;;;5005827;28;20283;-84
2022/04/04 06:16:33;;;;;;;11.63;8.88;;;-1.70;99.90;;;;;;4988500;28;20316;-84
2022/04/04 06:18:59;;;;;;;10.90;9.02;;;-1.50;99.90;;;;;;5004577;28;20181;-85
2022/04/04 06:21:25;;;;;;;13.90;9.20;;;-1.40;99.90;;;;;;4989962;28;20242;-84
2022/04/04 06:23:51;;;;;;;10.50;8.40;;;-1.20;99.90;;;;;;5007296;28;20705;-84
2022/04/04 06:26:16;;;;;;;9.43;7.70;;;-1.20;99.90;;;;;;4991400;28;20271;-83
2022/04/04 06:28:42;;;;;;;11.77;8.63;;;-1.10;99.90;;;;;;4982772;28;20458;-83
2022/04/04 06:31:07;;;;;;;13.90;9.17;;;-1.30;99.90;;;;;;4989490;28;21299;-84
2022/04/04 06:33:34;;;;;;;14.77;8.67;;;-1.10;99.90;;;;;;4981869;28;20193;-83
2022/04/04 06:36:03;;;;;;;11.90;8.90;;;-1.00;99.90;;;;;;4986900;28;20401;-81
2022/04/04 06:38:43;;;;;;;18.90;9.10;;;-1.10;99.90;;;;;;4990420;28;20447;-81
2022/04/04 06:41:10;;;;;;;12.27;9.30;;;-1.00;99.90;;;;;;4982734;28;20453;-83
2022/04/04 06:43:36;;;;;;;13.67;9.33;;;-0.80;99.90;;;;;;4981505;28;20571;-82
2022/04/04 06:46:01;;;;;;;32.97;28.07;;;-0.60;99.90;;;;;;5009275;28;20474;-83
2022/04/04 06:48:30;;;;;;;11.43;8.13;;;-0.30;99.90;;;;;;4983975;28;20644;-83
2022/04/04 06:50:56;;;;;;;11.70;9.50;;;-0.30;99.90;;;;;;4979339;28;20379;-83
2022/04/04 06:53:21;;;;;;;11.53;9.67;;;-0.30;99.90;;;;;;4991540;28;20450;-84
2022/04/04 06:55:48;;;;;;;13.30;10.37;;;-0.10;99.90;;;;;;4989660;28;20486;-82
2022/04/04 06:58:14;;;;;;;11.50;8.67;;;-0.10;99.90;;;;;;4980934;28;20240;-84
2022/04/04 07:00:41;;;;;;;11.90;9.63;;;0.00;99.90;;;;;;4997404;28;20455;-83
2022/04/04 07:03:08;;;;;;;11.43;9.20;;;0.00;99.90;;;;;;4996536;28;20489;-82
2022/04/04 07:05:34;;;;;;;15.40;9.10;;;0.10;99.90;;;;;;4977592;28;20443;-83
2022/04/04 07:08:00;;;;;;;13.83;9.33;;;0.20;99.90;;;;;;4986163;28;20863;-83
2022/04/04 07:10:25;;;;;;;11.57;8.27;;;0.30;99.90;;;;;;4988467;28;20804;-84
2022/04/04 07:12:51;;;;;;;11.30;9.47;;;0.40;99.90;;;;;;4980466;28;20186;-84
2022/04/04 07:15:16;;;;;;;11.97;9.37;;;0.50;99.90;;;;;;4983265;28;20185;-83
2022/04/04 07:17:43;;;;;;;10.03;8.50;;;0.50;99.90;;;;;;4996303;28;20197;-82
2022/04/04 07:20:10;;;;;;;12.00;8.43;;;0.60;99.90;;;;;;4987059;28;20185;-83
2022/04/04 07:22:40;;;;;;;11.53;9.27;;;0.50;99.90;;;;;;4992910;28;20922;-83
2022/04/04 07:25:08;;;;;;;11.03;9.10;;;0.60;99.90;;;;;;4994195;28;20477;-85
2022/04/04 07:27:34;;;;;;;11.13;9.07;;;0.80;99.90;;;;;;5001311;28;20499;-84
2022/04/04 07:30:00;;;;;;;9.33;8.37;;;0.90;99.90;;;;;;4980915;28;20940;-83
2022/04/04 07:32:28;;;;;;;12.70;9.30;;;1.00;99.90;;;;;;4988424;28;20443;-84
2022/04/04 07:34:54;;;;;;;13.07;9.60;;;1.00;99.90;;;;;;5002952;28;20209;-83
2022/04/04 07:37:22;;;;;;;10.20;8.70;;;1.10;99.90;;;;;;4982582;28;20450;-85
2022/04/04 07:39:47;;;;;;;9.70;8.20;;;1.20;99.90;;;;;;4998197;28;20203;-83
2022/04/04 07:42:13;;;;;;;11.80;9.03;;;1.30;99.90;;;;;;4977760;28;20443;-84
2022/04/04 07:44:39;;;;;;;11.13;8.63;;;1.40;99.90;;;;;;4982396;28;20193;-82
2022/04/04 07:47:05;;;;;;;10.40;8.33;;;1.50;99.90;;;;;;4987720;28;20240;-82
2022/04/04 07:49:31;;;;;;;9.50;8.43;;;1.60;99.90;;;;;;4988702;28;20442;-84
2022/04/04 07:51:57;;;;;;;10.60;8.27;;;1.60;99.90;;;;;;4993003;28;20541;-83
2022/04/04 07:54:22;;;;;;;11.63;8.47;;;1.80;99.90;;;;;;4993582;28;20243;-83
2022/04/04 07:56:48;;;;;;;11.00;8.83;;;1.80;99.90;;;;;;4989671;28;20611;-84
2022/04/04 07:59:13;;;;;;;10.60;8.90;;;1.90;99.90;;;;;;4981088;28;20185;-84
2022/04/04 08:01:39;;;;;;;18.20;15.43;;;2.00;99.90;;;;;;4983492;28;20904;-85
2022/04/04 08:04:05;;;;;;;11.43;9.00;;;2.10;99.90;;;;;;4990804;28;20763;-85
2022/04/04 08:06:30;;;;;;;9.07;7.57;;;2.20;99.90;;;;;;4987724;28;20690;-84
2022/04/04 08:08:56;;;;;;;12.17;8.90;;;2.40;99.90;;;;;;4992925;28;20452;-85
2022/04/04 08:11:22;;;;;;;9.67;8.30;;;2.50;99.90;;;;;;4981352;28;20192;-84
2022/04/04 08:13:47;;;;;;;9.80;7.60;;;2.60;99.90;;;;;;4985697;28;20807;-85
2022/04/04 08:16:13;;;;;;;10.40;7.97;;;2.70;99.90;;;;;;4983223;28;20197;-85
2022/04/04 08:18:39;;;;;;;9.53;7.60;;;2.70;99.90;;;;;;4989051;28;20201;-84
2022/04/04 08:21:04;;;;;;;8.30;7.47;;;2.70;99.90;;;;;;4977315;28;20296;-85
2022/04/04 08:23:31;;;;;;;9.03;8.13;;;2.80;99.90;;;;;;4981110;28;20757;-85
2022/04/04 08:25:57;;;;;;;8.60;7.40;;;2.90;99.90;;;;;;4975251;28;20770;-85
2022/04/04 08:28:23;;;;;;;9.60;8.20;;;3.00;99.90;;;;;;4984210;28;20827;-85
2022/04/04 08:30:50;;;;;;;9.17;8.27;;;3.20;99.90;;;;;;4984016;28;20443;-85
2022/04/04 08:33:17;;;;;;;9.67;8.00;;;3.30;99.90;;;;;;4978203;28;20690;-85
2022/04/04 08:35:42;;;;;;;8.73;7.07;;;3.30;99.90;;;;;;4976941;28;20538;-85
2022/04/04 08:38:08;;;;;;;9.77;7.30;;;3.30;99.90;;;;;;4972004;28;21235;-85
2022/04/04 08:40:35;;;;;;;8.37;7.57;;;3.50;99.90;;;;;;4975264;28;20188;-85
2022/04/04 08:43:23;;;;;;;8.23;7.43;;;3.70;99.90;;;;;;4976302;28;20221;-85
2022/04/04 08:45:49;;;;;;;8.10;6.70;;;3.80;99.90;;;;;;4984077;28;20442;-85
2022/04/04 08:48:16;;;;;;;8.73;7.07;;;3.90;99.90;;;;;;4983141;28;20470;-85
2022/04/04 08:50:43;;;;;;;10.27;7.43;;;4.00;99.90;;;;;;4974621;28;20447;-86
2022/04/04 08:53:08;;;;;;;9.40;7.30;;;3.90;99.90;;;;;;4985619;28;20948;-86
2022/04/04 08:55:35;;;;;;;8.67;7.07;;;4.00;99.90;;;;;;4987172;28;21061;-85
2022/04/04 08:58:03;;;;;;;8.53;7.63;;;4.20;99.90;;;;;;4997199;28;20187;-85
2022/04/04 09:00:30;;;;;;;7.77;6.93;;;4.30;99.90;;;;;;4974881;28;20445;-86
2022/04/04 09:03:03;;;;;;;6.93;6.33;;;4.40;99.70;;;;;;4973911;28;20837;-85
2022/04/04 09:05:56;;;;;;;7.47;6.60;;;4.30;98.00;;;;;;4975291;28;20491;-85
2022/04/04 09:08:23;;;;;;;7.80;6.40;;;4.30;98.30;;;;;;4975365;28;20456;-85
2022/04/04 09:10:57;;;;;;;6.97;6.27;;;4.50;99.10;;;;;;4988303;28;20862;-85
2022/04/04 09:13:28;;;;;;;7.40;6.17;;;4.70;96.90;;;;;;4985562;28;20540;-85
2022/04/04 09:15:58;;;;;;;8.10;6.77;;;4.90;96.20;;;;;;4987660;28;20531;-84
2022/04/04 09:18:42;;;;;;;7.03;5.80;;;5.00;95.30;;;;;;4983111;28;21139;-86
2022/04/04 09:21:09;;;;;;;7.57;5.70;;;5.00;95.30;;;;;;4997004;28;20838;-85
2022/04/04 09:23:47;;;;;;;6.80;5.60;;;4.80;94.00;;;;;;4973507;28;22289;-86
2022/04/04 09:26:35;;;;;;;9.63;6.10;;;4.90;95.20;;;;;;4985540;28;21049;-85
2022/04/04 09:29:16;;;;;;;5.93;5.00;;;5.20;93.50;;;;;;5001803;28;20782;-86
2022/04/04 09:31:53;;;;;;;6.53;5.77;;;4.90;92.20;;;;;;5008640;28;20461;-86
2022/04/04 09:34:19;;;;;;;6.93;6.20;;;5.00;91.40;;;;;;4985243;28;20958;-85
2022/04/04 09:36:46;;;;;;;6.50;5.77;;;5.00;91.60;;;;;;4986564;28;20455;-85
2022/04/04 09:39:14;;;;;;;6.60;6.00;;;5.20;92.70;;;;;;4978599;28;20194;-85
2022/04/04 09:41:40;;;;;;;9.20;5.60;;;5.40;90.80;;;;;;4983215;28;20485;-84
2022/04/04 09:44:08;;;;;;;7.50;5.43;;;5.20;91.00;;;;;;4981094;28;20702;-85
2022/04/04 09:46:39;;;;;;;6.30;5.50;;;5.40;90.40;;;;;;4992937;28;20190;-87
2022/04/04 09:49:17;;;;;;;6.83;5.67;;;5.50;89.60;;;;;;4985652;28;20445;-86
2022/04/04 09:51:48;;;;;;;5.13;4.70;;;5.70;89.30;;;;;;4992473;28;20445;-86
2022/04/04 09:54:19;;;;;;;6.53;5.70;;;5.90;86.20;;;;;;4992253;28;20505;-86
2022/04/04 09:56:46;;;;;;;6.80;6.10;;;5.80;85.20;;;;;;4987086;28;20639;-88
2022/04/04 09:59:14;;;;;;;5.43;4.93;;;5.90;87.20;;;;;;4994228;28;20478;-87
2022/04/04 10:01:44;;;;;;;6.33;5.73;;;6.20;85.10;;;;;;4978740;28;20543;-84
2022/04/04 10:04:12;;;;;;;6.03;5.40;;;6.20;84.50;;;;;;4977904;28;20858;-84
2022/04/04 10:06:47;;;;;;;8.00;6.40;;;6.10;85.50;;;;;;4982660;28;20909;-86
2022/04/04 10:09:13;;;;;;;6.20;5.60;;;6.00;87.00;;;;;;4977487;28;20490;-86
2022/04/04 10:11:40;;;;;;;6.20;5.60;;;6.30;84.10;;;;;;4993149;28;20524;-87
2022/04/04 10:14:06;;;;;;;6.40;5.80;;;6.30;80.60;;;;;;4990931;28;20463;-87
2022/04/04 10:16:33;;;;;;;6.70;6.10;;;6.40;79.40;;;;;;4987713;28;20521;-85
2022/04/04 10:18:59;;;;;;;5.47;5.07;;;6.30;83.30;;;;;;4988140;28;20464;-85
2022/04/04 10:21:26;;;;;;;6.60;6.00;;;6.50;78.50;;;;;;4998841;28;20563;-85
2022/04/04 10:24:02;;;;;;;7.13;5.50;;;6.40;79.50;;;;;;4988053;28;20477;-87
2022/04/04 10:26:47;;;;;;;5.50;5.00;;;6.30;76.80;;;;;;4979561;28;21072;-85
2022/04/04 10:29:22;;;;;;;6.50;5.87;;;6.50;78.10;;;;;;4996744;28;20476;-87
2022/04/04 10:31:53;;;;;;;7.23;5.73;;;6.30;78.20;;;;;;4981561;28;20621;-87
2022/04/04 10:34:23;;;;;;;6.10;5.53;;;6.70;77.20;;;;;;4981039;28;20463;-89
2022/04/04 10:37:06;;;;;;;6.70;6.10;;;7.00;76.10;;;;;;4981768;28;20457;-88
2022/04/04 10:39:33;;;;;;;7.80;6.00;;;7.40;76.50;;;;;;4989770;28;20499;-90
2022/04/04 10:41:59;;;;;;;8.00;5.77;;;7.30;74.80;;;;;;4992521;28;20512;-88
2022/04/04 10:44:47;;;;;;;7.00;6.30;;;7.10;74.20;;;;;;4977685;28;20479;-86
2022/04/04 10:47:20;;;;;;;6.40;5.90;;;7.10;75.90;;;;;;4978175;28;20192;-88
2022/04/04 10:49:47;;;;;;;7.50;6.70;;;7.20;77.50;;;;;;4991942;28;20490;-87
2022/04/04 10:52:12;;;;;;;6.30;5.73;;;6.90;80.00;;;;;;4990423;28;20431;-86
2022/04/04 10:54:38;;;;;;;6.90;6.30;;;6.70;78.30;;;;;;4981448;28;20481;-86
2022/04/04 10:57:18;;;;;;;7.53;6.73;;;6.70;81.10;;;;;;5007237;28;20203;-87
2022/04/04 10:59:48;;;;;;;7.47;6.20;;;7.10;82.00;;;;;;4997652;28;20187;-85
2022/04/04 11:02:15;;;;;;;6.90;6.30;;;6.70;78.60;;;;;;5001976;28;20453;-86
2022/04/04 11:07:38;;;;;;;7.57;6.33;;;7.20;78.10;;;;;;4982481;28;21035;-86
2022/04/04 11:10:37;;;;;;;6.93;6.33;;;6.80;81.00;;;;;;4985852;28;21313;-86
2022/04/04 11:13:08;;;;;;;6.30;5.70;;;6.80;80.10;;;;;;4984391;28;20461;-85
2022/04/04 11:15:43;;;;;;;7.20;6.60;;;7.40;79.50;;;;;;4980393;28;20505;-87
2022/04/04 11:18:10;;;;;;;5.77;5.27;;;7.70;79.20;;;;;;4988577;28;20438;-87
2022/04/04 11:20:50;;;;;;;6.87;6.27;;;7.70;78.30;;;;;;4995956;28;20780;-87
2022/04/04 11:23:17;;;;;;;7.80;7.00;;;7.70;80.40;;;;;;5001716;28;21036;-87
2022/04/04 11:25:52;;;;;;;8.03;6.20;;;8.00;80.80;;;;;;4997194;28;20594;-89
2022/04/04 11:28:20;;;;;;;6.57;5.87;;;8.50;77.50;;;;;;4985245;28;20444;-86
2022/04/04 11:30:47;;;;;;;6.53;5.83;;;8.40;76.20;;;;;;4983177;28;20446;-89
2022/04/04 11:33:22;;;;;;;6.00;5.50;;;8.50;76.20;;;;;;4991855;28;20813;-86
2022/04/04 11:35:51;;;;;;;6.30;5.77;;;8.30;75.10;;;;;;4988082;28;20450;-87
2022/04/04 11:38:20;;;;;;;6.07;5.53;;;8.20;76.90;;;;;;5001125;28;20444;-87
2022/04/04 11:40:53;;;;;;;7.23;5.63;;;8.30;75.40;;;;;;4985988;28;24206;-86
2022/04/04 11:43:25;;;;;;;6.63;6.13;;;8.70;76.80;;;;;;4987924;28;20482;-85
2022/04/04 11:45:55;;;;;;;6.47;5.87;;;8.30;73.00;;;;;;4989559;28;20462;-88
2022/04/04 11:52:09;;;;;;;5.60;5.10;;;8.50;75.60;;;;;;4993665;28;21190;-90
2022/04/04 11:54:53;;;;;;;6.30;5.80;;;8.50;77.00;;;;;;5009367;28;20528;-87
2022/04/04 11:57:21;;;;;;;6.20;5.60;;;8.40;75.80;;;;;;5004052;28;20727;-88
2022/04/04 11:59:51;;;;;;;6.00;5.50;;;8.20;75.40;;;;;;4989276;28;20444;-87
2022/04/04 12:02:23;;;;;;;5.33;4.93;;;8.50;78.40;;;;;;4988481;28;20446;-88
2022/04/04 12:08:31;;;;;;;6.83;5.50;;;8.40;77.00;;;;;;4971777;28;20428;-87
2022/04/04 12:10:56;;;;;;;6.00;5.40;;;8.40;77.60;;;;;;4983132;28;20447;-86
2022/04/04 12:13:23;;;;;;;6.00;5.47;;;8.50;76.60;;;;;;4977958;28;20192;-88
2022/04/04 12:15:53;;;;;;;7.03;6.33;;;8.50;78.20;;;;;;4989811;28;20188;-88
2022/04/04 12:18:29;;;;;;;6.70;5.33;;;8.70;77.80;;;;;;5010507;28;20441;-88
2022/04/04 12:21:00;;;;;;;5.80;5.30;;;9.10;78.60;;;;;;4992707;28;20779;-88
2022/04/04 12:26:14;;;;;;;5.90;5.40;;;8.90;75.80;;;;;;4992420;28;20458;-87
2022/04/04 12:28:53;;;;;;;6.23;5.63;;;8.40;76.00;;;;;;4988179;28;20497;-88
2022/04/04 12:31:23;;;;;;;8.93;5.80;;;8.60;77.50;;;;;;4991223;28;20838;-89
2022/04/04 12:33:55;;;;;;;5.80;5.20;;;8.70;77.40;;;;;;5012853;28;20505;-88
2022/04/04 12:36:42;;;;;;;5.83;5.23;;;8.80;76.40;;;;;;5011678;28;21121;-88
2022/04/04 12:39:13;;;;;;;5.63;5.00;;;8.90;77.70;;;;;;4995623;28;20443;-87
2022/04/04 12:41:53;;;;;;;6.30;5.73;;;8.90;75.60;;;;;;5000193;28;20445;-88
2022/04/04 12:44:28;;;;;;;6.53;5.93;;;8.90;74.90;;;;;;5005279;28;20630;-88
2022/04/04 12:47:08;;;;;;;6.97;6.37;;;9.00;75.10;;;;;;4995484;28;20436;-89
2022/04/04 12:49:35;;;;;;;6.97;6.37;;;9.10;76.90;;;;;;4987725;28;20450;-88
2022/04/04 12:52:06;;;;;;;7.37;6.20;;;9.10;75.10;;;;;;4991816;28;20470;-88
2022/04/04 12:54:39;;;;;;;7.13;6.53;;;9.20;74.80;;;;;;4993524;28;20877;-88
2022/04/04 12:57:10;;;;;;;6.50;5.90;;;9.30;74.50;;;;;;4985560;28;20509;-88
2022/04/04 12:59:50;;;;;;;7.00;6.30;;;9.60;74.40;;;;;;4990127;28;20520;-88
2022/04/04 13:02:15;;;;;;;6.60;6.00;;;9.50;73.80;;;;;;4981374;28;20523;-88
2022/04/04 13:04:46;;;;;;;8.23;6.97;;;9.60;73.90;;;;;;4995147;28;20528;-89